Main page
Satellite images 15-day forecastsClimateMarine weather Cyclones Lightning AirportsFAQ Newsletter About
Weather : Europe Africa North America South America Asia Australia-Oceania Others
Languages Contact

Mangalore, India

Bajpe

latitude: 12-55N, longitude: 074-53E, elevation: 102 m


METAR: missing
TAF: VOML 221800Z 2221/2306 11005KT 3000 HZ SCT010 TEMPO 2300/2303 1500 BR SCT005 SCT012 BECMG 2303/2304 6000 SCT015

Time: 09:13 (03:43 UTC)

Forecast

The report was made 9 hours and 43 minutes ago, at 18:00 UTC
Forecast valid from 22 at 21 UTC to 23 at 06 UTC
Wind 5 kt from the East/Southeast
Visibility: 3000 m
Scattered clouds at a height of 1000 ft
haze
Temporary
from 23 at 00 UTC to 23 at 03 UTC
Visibility: 1500 m
Scattered clouds at a height of 500 ft
Scattered clouds at a height of 1200 ft
mist
Becoming
from 23 at 03 UTC to 23 at 04 UTC
Visibility: 6000 m
Scattered clouds at a height of 1500 ft
The information on this site is subject to a disclaimer
Weather : Europe Africa North America South America Asia Australia-Oceania Others
Satellite images 15-day forecastsClimateMarine weather Cyclones Lightning AirportsFAQ Languages Contact Newsletter About